sensor_id;sensor_type;location;lat;lon;timestamp;P1;durP1;ratioP1;P2;durP2;ratioP2
70970;SDS011;58632;51.718;19.446;2024-02-26T00:01:41;58.20;;;30.70;;
70970;SDS011;58632;51.718;19.446;2024-02-26T00:04:26;54.70;;;28.70;;
70970;SDS011;58632;51.718;19.446;2024-02-26T00:06:52;56.20;;;30.30;;
70970;SDS011;58632;51.718;19.446;2024-02-26T00:09:19;166.70;;;33.50;;
70970;SDS011;58632;51.718;19.446;2024-02-26T00:11:45;95.00;;;29.70;;
70970;SDS011;58632;51.718;19.446;2024-02-26T00:14:10;82.30;;;29.50;;
70970;SDS011;58632;51.718;19.446;2024-02-26T00:16:36;77.50;;;32.30;;
70970;SDS011;58632;51.718;19.446;2024-02-26T00:19:01;64.30;;;31.40;;
70970;SDS011;58632;51.718;19.446;2024-02-26T00:21:27;65.80;;;32.70;;
70970;SDS011;58632;51.718;19.446;2024-02-26T00:23:53;60.60;;;30.30;;
70970;SDS011;58632;51.718;19.446;2024-02-26T00:26:21;56.30;;;29.20;;
70970;SDS011;58632;51.718;19.446;2024-02-26T00:28:46;55.20;;;29.90;;
70970;SDS011;58632;51.718;19.446;2024-02-26T00:31:14;54.70;;;29.30;;
70970;SDS011;58632;51.718;19.446;2024-02-26T00:33:40;57.40;;;32.50;;
70970;SDS011;58632;51.718;19.446;2024-02-26T00:36:05;72.00;;;38.70;;
70970;SDS011;58632;51.718;19.446;2024-02-26T00:38:31;63.70;;;35.00;;
70970;SDS011;58632;51.718;19.446;2024-02-26T00:40:56;61.70;;;34.20;;
70970;SDS011;58632;51.718;19.446;2024-02-26T00:43:22;56.90;;;33.30;;
70970;SDS011;58632;51.718;19.446;2024-02-26T00:45:48;53.60;;;29.10;;
70970;SDS011;58632;51.718;19.446;2024-02-26T00:48:14;54.40;;;29.90;;
70970;SDS011;58632;51.718;19.446;2024-02-26T00:50:40;48.40;;;29.40;;
70970;SDS011;58632;51.718;19.446;2024-02-26T00:53:10;50.70;;;30.00;;
70970;SDS011;58632;51.718;19.446;2024-02-26T00:55:36;57.50;;;32.10;;
70970;SDS011;58632;51.718;19.446;2024-02-26T00:58:01;57.90;;;31.00;;
70970;SDS011;58632;51.718;19.446;2024-02-26T01:00:27;55.50;;;31.40;;
70970;SDS011;58632;51.718;19.446;2024-02-26T01:02:55;50.90;;;27.90;;
70970;SDS011;58632;51.718;19.446;2024-02-26T01:05:21;51.60;;;26.00;;
70970;SDS011;58632;51.718;19.446;2024-02-26T01:07:47;50.80;;;26.40;;
70970;SDS011;58632;51.718;19.446;2024-02-26T01:10:13;45.00;;;26.20;;
70970;SDS011;58632;51.718;19.446;2024-02-26T01:12:39;51.20;;;28.50;;
70970;SDS011;58632;51.718;19.446;2024-02-26T01:15:04;50.40;;;30.00;;
70970;SDS011;58632;51.718;19.446;2024-02-26T01:17:31;51.40;;;30.70;;
70970;SDS011;58632;51.718;19.446;2024-02-26T01:19:56;47.50;;;28.40;;
70970;SDS011;58632;51.718;19.446;2024-02-26T01:22:22;43.70;;;26.40;;
70970;SDS011;58632;51.718;19.446;2024-02-26T01:24:51;48.00;;;26.00;;
70970;SDS011;58632;51.718;19.446;2024-02-26T01:27:16;47.40;;;26.20;;
70970;SDS011;58632;51.718;19.446;2024-02-26T01:29:42;44.70;;;24.60;;
70970;SDS011;58632;51.718;19.446;2024-02-26T01:32:10;47.70;;;26.80;;
70970;SDS011;58632;51.718;19.446;2024-02-26T01:34:35;52.60;;;29.50;;
70970;SDS011;58632;51.718;19.446;2024-02-26T01:37:02;47.90;;;28.30;;
70970;SDS011;58632;51.718;19.446;2024-02-26T01:39:28;49.30;;;29.90;;
70970;SDS011;58632;51.718;19.446;2024-02-26T01:41:55;48.30;;;26.50;;
70970;SDS011;58632;51.718;19.446;2024-02-26T01:44:21;43.00;;;24.40;;
70970;SDS011;58632;51.718;19.446;2024-02-26T01:46:46;41.30;;;24.20;;
70970;SDS011;58632;51.718;19.446;2024-02-26T01:49:13;41.60;;;24.90;;
70970;SDS011;58632;51.718;19.446;2024-02-26T01:51:40;47.20;;;28.80;;
70970;SDS011;58632;51.718;19.446;2024-02-26T01:54:08;54.70;;;32.00;;
70970;SDS011;58632;51.718;19.446;2024-02-26T01:56:34;56.30;;;33.70;;
70970;SDS011;58632;51.718;19.446;2024-02-26T01:59:01;61.40;;;32.70;;
70970;SDS011;58632;51.718;19.446;2024-02-26T02:01:31;49.10;;;28.80;;
70970;SDS011;58632;51.718;19.446;2024-02-26T02:03:58;51.20;;;28.00;;
70970;SDS011;58632;51.718;19.446;2024-02-26T02:06:25;55.50;;;27.60;;
70970;SDS011;58632;51.718;19.446;2024-02-26T02:08:54;50.60;;;28.20;;
70970;SDS011;58632;51.718;19.446;2024-02-26T02:11:20;47.30;;;26.80;;
70970;SDS011;58632;51.718;19.446;2024-02-26T02:13:46;54.20;;;29.90;;
70970;SDS011;58632;51.718;19.446;2024-02-26T02:16:12;51.00;;;29.50;;
70970;SDS011;58632;51.718;19.446;2024-02-26T02:18:38;55.30;;;29.60;;
70970;SDS011;58632;51.718;19.446;2024-02-26T02:21:04;53.00;;;27.10;;
70970;SDS011;58632;51.718;19.446;2024-02-26T02:23:29;46.60;;;25.80;;
70970;SDS011;58632;51.718;19.446;2024-02-26T02:25:56;48.30;;;24.90;;
70970;SDS011;58632;51.718;19.446;2024-02-26T02:30:48;48.50;;;26.40;;
70970;SDS011;58632;51.718;19.446;2024-02-26T02:33:17;48.90;;;27.40;;
70970;SDS011;58632;51.718;19.446;2024-02-26T02:35:42;51.40;;;27.30;;
70970;SDS011;58632;51.718;19.446;2024-02-26T02:38:08;45.90;;;27.60;;
70970;SDS011;58632;51.718;19.446;2024-02-26T02:40:36;43.40;;;23.90;;
70970;SDS011;58632;51.718;19.446;2024-02-26T02:43:01;42.50;;;22.60;;
70970;SDS011;58632;51.718;19.446;2024-02-26T02:45:27;41.80;;;22.70;;
70970;SDS011;58632;51.718;19.446;2024-02-26T02:47:53;37.20;;;22.10;;
70970;SDS011;58632;51.718;19.446;2024-02-26T02:50:19;37.60;;;23.10;;
70970;SDS011;58632;51.718;19.446;2024-02-26T02:52:45;45.90;;;24.80;;
70970;SDS011;58632;51.718;19.446;2024-02-26T02:55:10;42.60;;;24.30;;
70970;SDS011;58632;51.718;19.446;2024-02-26T02:57:37;48.80;;;25.40;;
70970;SDS011;58632;51.718;19.446;2024-02-26T03:00:09;45.60;;;23.50;;
70970;SDS011;58632;51.718;19.446;2024-02-26T03:02:35;67.90;;;43.30;;
70970;SDS011;58632;51.718;19.446;2024-02-26T03:05:05;46.40;;;31.30;;
70970;SDS011;58632;51.718;19.446;2024-02-26T03:07:31;53.20;;;32.30;;
70970;SDS011;58632;51.718;19.446;2024-02-26T03:09:57;40.20;;;23.90;;
70970;SDS011;58632;51.718;19.446;2024-02-26T03:12:22;44.30;;;25.90;;
70970;SDS011;58632;51.718;19.446;2024-02-26T03:14:48;41.90;;;23.60;;
70970;SDS011;58632;51.718;19.446;2024-02-26T03:17:14;39.50;;;23.60;;
70970;SDS011;58632;51.718;19.446;2024-02-26T03:19:39;37.30;;;23.10;;
70970;SDS011;58632;51.718;19.446;2024-02-26T03:22:04;33.10;;;19.90;;
70970;SDS011;58632;51.718;19.446;2024-02-26T03:24:30;35.20;;;19.00;;
70970;SDS011;58632;51.718;19.446;2024-02-26T03:26:55;29.70;;;18.40;;
70970;SDS011;58632;51.718;19.446;2024-02-26T03:29:21;31.00;;;18.30;;
70970;SDS011;58632;51.718;19.446;2024-02-26T03:31:47;35.00;;;19.30;;
70970;SDS011;58632;51.718;19.446;2024-02-26T03:34:12;33.00;;;20.00;;
70970;SDS011;58632;51.718;19.446;2024-02-26T03:36:39;33.60;;;20.40;;
70970;SDS011;58632;51.718;19.446;2024-02-26T03:39:06;34.10;;;20.30;;
70970;SDS011;58632;51.718;19.446;2024-02-26T03:41:35;32.60;;;19.20;;
70970;SDS011;58632;51.718;19.446;2024-02-26T03:44:01;31.00;;;18.30;;
70970;SDS011;58632;51.718;19.446;2024-02-26T03:46:27;31.90;;;18.40;;
70970;SDS011;58632;51.718;19.446;2024-02-26T03:48:53;31.40;;;18.40;;
70970;SDS011;58632;51.718;19.446;2024-02-26T03:51:19;32.40;;;18.30;;
70970;SDS011;58632;51.718;19.446;2024-02-26T03:53:44;32.50;;;19.90;;
70970;SDS011;58632;51.718;19.446;2024-02-26T03:56:13;33.30;;;20.00;;
70970;SDS011;58632;51.718;19.446;2024-02-26T03:58:38;33.60;;;19.50;;
70970;SDS011;58632;51.718;19.446;2024-02-26T04:01:07;36.90;;;18.80;;
70970;SDS011;58632;51.718;19.446;2024-02-26T04:03:33;30.70;;;18.40;;
70970;SDS011;58632;51.718;19.446;2024-02-26T04:05:58;36.00;;;18.20;;
70970;SDS011;58632;51.718;19.446;2024-02-26T04:08:24;31.90;;;18.30;;
70970;SDS011;58632;51.718;19.446;2024-02-26T04:10:50;33.90;;;18.60;;
70970;SDS011;58632;51.718;19.446;2024-02-26T04:13:17;33.70;;;19.90;;
70970;SDS011;58632;51.718;19.446;2024-02-26T04:15:42;34.00;;;19.90;;
70970;SDS011;58632;51.718;19.446;2024-02-26T04:18:08;38.30;;;19.70;;
70970;SDS011;58632;51.718;19.446;2024-02-26T04:20:34;33.50;;;19.50;;
70970;SDS011;58632;51.718;19.446;2024-02-26T04:22:59;35.60;;;18.30;;
70970;SDS011;58632;51.718;19.446;2024-02-26T04:25:27;27.90;;;16.30;;
70970;SDS011;58632;51.718;19.446;2024-02-26T04:27:53;27.00;;;15.80;;
70970;SDS011;58632;51.718;19.446;2024-02-26T04:30:19;29.80;;;16.60;;
70970;SDS011;58632;51.718;19.446;2024-02-26T04:32:45;30.90;;;17.80;;
70970;SDS011;58632;51.718;19.446;2024-02-26T04:35:10;33.40;;;19.00;;
70970;SDS011;58632;51.718;19.446;2024-02-26T04:37:36;30.70;;;17.80;;
70970;SDS011;58632;51.718;19.446;2024-02-26T04:40:04;37.00;;;19.20;;
70970;SDS011;58632;51.718;19.446;2024-02-26T04:42:31;34.40;;;19.60;;
70970;SDS011;58632;51.718;19.446;2024-02-26T04:44:56;29.90;;;18.40;;
70970;SDS011;58632;51.718;19.446;2024-02-26T04:47:22;32.40;;;18.60;;
70970;SDS011;58632;51.718;19.446;2024-02-26T04:49:49;30.10;;;16.70;;
70970;SDS011;58632;51.718;19.446;2024-02-26T04:54:40;30.30;;;17.50;;
70970;SDS011;58632;51.718;19.446;2024-02-26T04:57:05;30.10;;;17.70;;
70970;SDS011;58632;51.718;19.446;2024-02-26T04:59:31;28.50;;;18.40;;
70970;SDS011;58632;51.718;19.446;2024-02-26T05:01:56;31.90;;;17.10;;
70970;SDS011;58632;51.718;19.446;2024-02-26T05:04:25;32.20;;;19.70;;
70970;SDS011;58632;51.718;19.446;2024-02-26T05:06:51;29.30;;;17.10;;
70970;SDS011;58632;51.718;19.446;2024-02-26T05:09:16;28.80;;;16.60;;
70970;SDS011;58632;51.718;19.446;2024-02-26T05:11:42;28.40;;;16.60;;
70970;SDS011;58632;51.718;19.446;2024-02-26T05:14:07;29.10;;;16.10;;
70970;SDS011;58632;51.718;19.446;2024-02-26T05:16:33;29.00;;;17.70;;
70970;SDS011;58632;51.718;19.446;2024-02-26T05:19:02;31.70;;;17.70;;
70970;SDS011;58632;51.718;19.446;2024-02-26T05:21:28;29.00;;;18.30;;
70970;SDS011;58632;51.718;19.446;2024-02-26T05:23:54;27.80;;;18.80;;
70970;SDS011;58632;51.718;19.446;2024-02-26T05:26:20;31.90;;;17.20;;
70970;SDS011;58632;51.718;19.446;2024-02-26T05:28:46;25.90;;;15.90;;
70970;SDS011;58632;51.718;19.446;2024-02-26T05:31:12;28.80;;;16.30;;
70970;SDS011;58632;51.718;19.446;2024-02-26T05:33:39;31.00;;;16.70;;
70970;SDS011;58632;51.718;19.446;2024-02-26T05:36:07;31.20;;;16.80;;
70970;SDS011;58632;51.718;19.446;2024-02-26T05:38:33;31.30;;;17.70;;
70970;SDS011;58632;51.718;19.446;2024-02-26T05:40:59;34.80;;;20.30;;
70970;SDS011;58632;51.718;19.446;2024-02-26T05:43:25;33.30;;;18.50;;
70970;SDS011;58632;51.718;19.446;2024-02-26T05:45:56;33.40;;;17.80;;
70970;SDS011;58632;51.718;19.446;2024-02-26T05:48:21;28.40;;;15.70;;
70970;SDS011;58632;51.718;19.446;2024-02-26T05:50:46;27.90;;;16.90;;
70970;SDS011;58632;51.718;19.446;2024-02-26T05:53:12;32.30;;;18.80;;
70970;SDS011;58632;51.718;19.446;2024-02-26T05:55:38;34.90;;;20.10;;
70970;SDS011;58632;51.718;19.446;2024-02-26T05:58:03;36.20;;;19.90;;
70970;SDS011;58632;51.718;19.446;2024-02-26T06:00:29;34.40;;;19.60;;
70970;SDS011;58632;51.718;19.446;2024-02-26T06:02:55;30.10;;;17.30;;
70970;SDS011;58632;51.718;19.446;2024-02-26T06:05:20;29.30;;;16.30;;
70970;SDS011;58632;51.718;19.446;2024-02-26T06:07:46;38.30;;;16.20;;
70970;SDS011;58632;51.718;19.446;2024-02-26T06:10:11;30.60;;;17.40;;
70970;SDS011;58632;51.718;19.446;2024-02-26T06:12:41;33.80;;;19.80;;
70970;SDS011;58632;51.718;19.446;2024-02-26T06:15:09;36.60;;;20.40;;
70970;SDS011;58632;51.718;19.446;2024-02-26T06:17:35;44.90;;;21.60;;
70970;SDS011;58632;51.718;19.446;2024-02-26T06:20:00;43.00;;;22.40;;
70970;SDS011;58632;51.718;19.446;2024-02-26T06:22:26;44.90;;;20.50;;
70970;SDS011;58632;51.718;19.446;2024-02-26T06:24:52;44.10;;;22.40;;
70970;SDS011;58632;51.718;19.446;2024-02-26T06:27:20;45.90;;;24.50;;
70970;SDS011;58632;51.718;19.446;2024-02-26T06:29:46;42.70;;;21.90;;
70970;SDS011;58632;51.718;19.446;2024-02-26T06:32:12;42.40;;;23.20;;
70970;SDS011;58632;51.718;19.446;2024-02-26T06:34:38;40.80;;;20.50;;
70970;SDS011;58632;51.718;19.446;2024-02-26T06:37:06;44.60;;;21.20;;
70970;SDS011;58632;51.718;19.446;2024-02-26T06:39:33;40.50;;;20.70;;
70970;SDS011;58632;51.718;19.446;2024-02-26T06:41:59;46.00;;;21.30;;
70970;SDS011;58632;51.718;19.446;2024-02-26T06:44:26;48.80;;;22.90;;
70970;SDS011;58632;51.718;19.446;2024-02-26T06:46:57;45.40;;;22.70;;
70970;SDS011;58632;51.718;19.446;2024-02-26T06:49:24;43.40;;;21.70;;
70970;SDS011;58632;51.718;19.446;2024-02-26T06:51:50;38.70;;;20.10;;
70970;SDS011;58632;51.718;19.446;2024-02-26T06:54:18;39.20;;;20.30;;
70970;SDS011;58632;51.718;19.446;2024-02-26T06:56:44;36.70;;;19.20;;
70970;SDS011;58632;51.718;19.446;2024-02-26T06:59:10;43.00;;;22.60;;
70970;SDS011;58632;51.718;19.446;2024-02-26T07:01:35;36.20;;;20.40;;
70970;SDS011;58632;51.718;19.446;2024-02-26T07:04:00;36.30;;;19.80;;
70970;SDS011;58632;51.718;19.446;2024-02-26T07:06:29;25.60;;;17.20;;
70970;SDS011;58632;51.718;19.446;2024-02-26T07:08:57;30.30;;;19.60;;
70970;SDS011;58632;51.718;19.446;2024-02-26T07:11:22;31.30;;;17.80;;
70970;SDS011;58632;51.718;19.446;2024-02-26T07:13:48;33.00;;;19.80;;
70970;SDS011;58632;51.718;19.446;2024-02-26T07:16:15;33.20;;;19.20;;
70970;SDS011;58632;51.718;19.446;2024-02-26T07:18:42;27.60;;;17.70;;
70970;SDS011;58632;51.718;19.446;2024-02-26T07:21:14;27.50;;;17.20;;
70970;SDS011;58632;51.718;19.446;2024-02-26T07:23:39;27.80;;;18.00;;
70970;SDS011;58632;51.718;19.446;2024-02-26T07:26:05;25.10;;;16.30;;
70970;SDS011;58632;51.718;19.446;2024-02-26T07:28:33;25.80;;;16.40;;
70970;SDS011;58632;51.718;19.446;2024-02-26T07:30:59;26.10;;;17.00;;
70970;SDS011;58632;51.718;19.446;2024-02-26T07:33:27;24.90;;;17.10;;
70970;SDS011;58632;51.718;19.446;2024-02-26T07:35:52;25.50;;;15.50;;
70970;SDS011;58632;51.718;19.446;2024-02-26T07:38:18;24.30;;;15.10;;
70970;SDS011;58632;51.718;19.446;2024-02-26T07:40:44;26.70;;;16.50;;
70970;SDS011;58632;51.718;19.446;2024-02-26T07:43:10;30.40;;;17.40;;
70970;SDS011;58632;51.718;19.446;2024-02-26T07:45:35;27.10;;;16.90;;
70970;SDS011;58632;51.718;19.446;2024-02-26T07:48:02;30.00;;;17.50;;
70970;SDS011;58632;51.718;19.446;2024-02-26T07:50:28;24.10;;;15.30;;
70970;SDS011;58632;51.718;19.446;2024-02-26T07:52:53;27.50;;;18.00;;
70970;SDS011;58632;51.718;19.446;2024-02-26T07:55:19;26.30;;;15.40;;
70970;SDS011;58632;51.718;19.446;2024-02-26T07:57:44;29.80;;;17.70;;
70970;SDS011;58632;51.718;19.446;2024-02-26T08:00:10;29.00;;;18.70;;
70970;SDS011;58632;51.718;19.446;2024-02-26T08:02:36;24.90;;;17.20;;
70970;SDS011;58632;51.718;19.446;2024-02-26T08:05:02;24.60;;;15.60;;
70970;SDS011;58632;51.718;19.446;2024-02-26T08:07:27;28.50;;;16.30;;
70970;SDS011;58632;51.718;19.446;2024-02-26T08:09:53;21.00;;;14.00;;
70970;SDS011;58632;51.718;19.446;2024-02-26T08:12:19;24.10;;;14.90;;
70970;SDS011;58632;51.718;19.446;2024-02-26T08:14:45;22.30;;;13.90;;
70970;SDS011;58632;51.718;19.446;2024-02-26T08:17:10;21.00;;;14.40;;
70970;SDS011;58632;51.718;19.446;2024-02-26T08:19:35;19.40;;;13.40;;
70970;SDS011;58632;51.718;19.446;2024-02-26T08:22:01;18.90;;;12.90;;
70970;SDS011;58632;51.718;19.446;2024-02-26T08:24:27;19.10;;;13.10;;
70970;SDS011;58632;51.718;19.446;2024-02-26T08:26:53;22.30;;;13.20;;
70970;SDS011;58632;51.718;19.446;2024-02-26T08:29:19;18.70;;;13.50;;
70970;SDS011;58632;51.718;19.446;2024-02-26T08:31:45;19.10;;;13.30;;
70970;SDS011;58632;51.718;19.446;2024-02-26T08:34:10;19.70;;;12.10;;
70970;SDS011;58632;51.718;19.446;2024-02-26T08:36:38;22.00;;;14.20;;
70970;SDS011;58632;51.718;19.446;2024-02-26T08:39:04;23.90;;;14.20;;
70970;SDS011;58632;51.718;19.446;2024-02-26T08:41:29;20.60;;;12.90;;
70970;SDS011;58632;51.718;19.446;2024-02-26T08:43:55;16.30;;;11.90;;
70970;SDS011;58632;51.718;19.446;2024-02-26T08:46:20;17.60;;;12.10;;
70970;SDS011;58632;51.718;19.446;2024-02-26T08:48:46;22.20;;;13.20;;
70970;SDS011;58632;51.718;19.446;2024-02-26T08:51:15;17.70;;;11.80;;
70970;SDS011;58632;51.718;19.446;2024-02-26T08:53:41;19.50;;;13.30;;
70970;SDS011;58632;51.718;19.446;2024-02-26T08:56:06;19.70;;;14.20;;
70970;SDS011;58632;51.718;19.446;2024-02-26T08:58:32;19.10;;;12.30;;
70970;SDS011;58632;51.718;19.446;2024-02-26T09:00:57;18.50;;;13.20;;
70970;SDS011;58632;51.718;19.446;2024-02-26T09:03:23;20.20;;;14.70;;
70970;SDS011;58632;51.718;19.446;2024-02-26T09:05:49;20.90;;;14.30;;
70970;SDS011;58632;51.718;19.446;2024-02-26T09:08:15;20.40;;;13.70;;
70970;SDS011;58632;51.718;19.446;2024-02-26T09:10:40;20.70;;;14.70;;
70970;SDS011;58632;51.718;19.446;2024-02-26T09:13:06;18.30;;;12.50;;
70970;SDS011;58632;51.718;19.446;2024-02-26T09:15:32;17.70;;;12.20;;
70970;SDS011;58632;51.718;19.446;2024-02-26T09:17:58;21.80;;;15.00;;
70970;SDS011;58632;51.718;19.446;2024-02-26T09:20:23;19.50;;;13.60;;
70970;SDS011;58632;51.718;19.446;2024-02-26T09:22:49;19.80;;;13.20;;
70970;SDS011;58632;51.718;19.446;2024-02-26T09:25:16;20.70;;;13.70;;
70970;SDS011;58632;51.718;19.446;2024-02-26T09:27:42;18.40;;;13.30;;
70970;SDS011;58632;51.718;19.446;2024-02-26T09:30:09;24.30;;;15.50;;
70970;SDS011;58632;51.718;19.446;2024-02-26T09:32:35;29.00;;;17.60;;
70970;SDS011;58632;51.718;19.446;2024-02-26T09:35:04;25.30;;;15.30;;
70970;SDS011;58632;51.718;19.446;2024-02-26T09:37:31;22.50;;;15.00;;
70970;SDS011;58632;51.718;19.446;2024-02-26T09:39:57;48.60;;;23.40;;
70970;SDS011;58632;51.718;19.446;2024-02-26T09:42:25;37.70;;;19.60;;
70970;SDS011;58632;51.718;19.446;2024-02-26T09:44:53;37.50;;;19.80;;
70970;SDS011;58632;51.718;19.446;2024-02-26T09:47:25;33.40;;;15.90;;
70970;SDS011;58632;51.718;19.446;2024-02-26T09:49:53;27.60;;;14.80;;
70970;SDS011;58632;51.718;19.446;2024-02-26T09:52:22;24.70;;;16.30;;
70970;SDS011;58632;51.718;19.446;2024-02-26T09:54:49;24.80;;;16.30;;
70970;SDS011;58632;51.718;19.446;2024-02-26T09:57:15;19.40;;;12.90;;
70970;SDS011;58632;51.718;19.446;2024-02-26T09:59:42;20.20;;;14.20;;
70970;SDS011;58632;51.718;19.446;2024-02-26T10:02:09;20.10;;;12.00;;
70970;SDS011;58632;51.718;19.446;2024-02-26T10:04:39;18.10;;;12.90;;
70970;SDS011;58632;51.718;19.446;2024-02-26T10:07:05;18.80;;;13.00;;
70970;SDS011;58632;51.718;19.446;2024-02-26T10:09:39;19.90;;;13.40;;
70970;SDS011;58632;51.718;19.446;2024-02-26T10:12:06;19.30;;;14.00;;
70970;SDS011;58632;51.718;19.446;2024-02-26T10:14:34;14.90;;;11.00;;
70970;SDS011;58632;51.718;19.446;2024-02-26T10:17:00;18.70;;;13.30;;
70970;SDS011;58632;51.718;19.446;2024-02-26T10:19:29;15.10;;;10.20;;
70970;SDS011;58632;51.718;19.446;2024-02-26T10:21:59;25.10;;;13.40;;
70970;SDS011;58632;51.718;19.446;2024-02-26T10:24:29;31.30;;;16.10;;
70970;SDS011;58632;51.718;19.446;2024-02-26T10:26:55;23.30;;;13.00;;
70970;SDS011;58632;51.718;19.446;2024-02-26T10:29:21;22.10;;;12.80;;
70970;SDS011;58632;51.718;19.446;2024-02-26T10:31:50;31.50;;;16.50;;
70970;SDS011;58632;51.718;19.446;2024-02-26T10:34:16;27.20;;;12.80;;
70970;SDS011;58632;51.718;19.446;2024-02-26T10:36:42;15.50;;;9.30;;
70970;SDS011;58632;51.718;19.446;2024-02-26T10:39:12;30.70;;;14.80;;
70970;SDS011;58632;51.718;19.446;2024-02-26T10:41:42;24.90;;;12.90;;
70970;SDS011;58632;51.718;19.446;2024-02-26T10:44:09;32.40;;;14.60;;
70970;SDS011;58632;51.718;19.446;2024-02-26T10:46:36;31.30;;;15.50;;
70970;SDS011;58632;51.718;19.446;2024-02-26T10:49:02;58.30;;;21.70;;
70970;SDS011;58632;51.718;19.446;2024-02-26T10:51:29;15.10;;;9.10;;
70970;SDS011;58632;51.718;19.446;2024-02-26T10:53:56;25.10;;;11.80;;
70970;SDS011;58632;51.718;19.446;2024-02-26T10:56:30;21.80;;;12.00;;
70970;SDS011;58632;51.718;19.446;2024-02-26T10:58:59;28.40;;;13.40;;
70970;SDS011;58632;51.718;19.446;2024-02-26T11:01:26;47.50;;;18.30;;
70970;SDS011;58632;51.718;19.446;2024-02-26T11:03:54;15.40;;;9.60;;
70970;SDS011;58632;51.718;19.446;2024-02-26T11:06:23;20.60;;;12.30;;
70970;SDS011;58632;51.718;19.446;2024-02-26T11:08:54;20.90;;;10.50;;
70970;SDS011;58632;51.718;19.446;2024-02-26T11:11:20;12.80;;;8.30;;
70970;SDS011;58632;51.718;19.446;2024-02-26T11:16:20;19.30;;;11.10;;
70970;SDS011;58632;51.718;19.446;2024-02-26T11:18:47;31.50;;;17.00;;
70970;SDS011;58632;51.718;19.446;2024-02-26T11:21:16;23.70;;;14.70;;
70970;SDS011;58632;51.718;19.446;2024-02-26T11:23:52;15.30;;;10.00;;
70970;SDS011;58632;51.718;19.446;2024-02-26T11:26:19;14.00;;;10.00;;
70970;SDS011;58632;51.718;19.446;2024-02-26T11:28:47;25.30;;;16.50;;
70970;SDS011;58632;51.718;19.446;2024-02-26T11:31:16;20.90;;;14.20;;
70970;SDS011;58632;51.718;19.446;2024-02-26T11:33:45;23.20;;;15.20;;
70970;SDS011;58632;51.718;19.446;2024-02-26T11:36:11;18.30;;;12.50;;
70970;SDS011;58632;51.718;19.446;2024-02-26T11:38:37;14.70;;;10.10;;
70970;SDS011;58632;51.718;19.446;2024-02-26T11:41:06;14.50;;;11.30;;
70970;SDS011;58632;51.718;19.446;2024-02-26T11:46:39;14.20;;;10.60;;
70970;SDS011;58632;51.718;19.446;2024-02-26T11:51:51;15.50;;;10.00;;
70970;SDS011;58632;51.718;19.446;2024-02-26T11:57:03;15.30;;;11.30;;
70970;SDS011;58632;51.718;19.446;2024-02-26T11:59:38;14.00;;;9.80;;
70970;SDS011;58632;51.718;19.446;2024-02-26T12:02:06;15.00;;;10.10;;
70970;SDS011;58632;51.718;19.446;2024-02-26T12:04:33;12.20;;;9.00;;
70970;SDS011;58632;51.718;19.446;2024-02-26T12:07:01;13.30;;;8.50;;
70970;SDS011;58632;51.718;19.446;2024-02-26T12:09:38;12.90;;;8.30;;
70970;SDS011;58632;51.718;19.446;2024-02-26T12:12:06;11.50;;;7.90;;
70970;SDS011;58632;51.718;19.446;2024-02-26T12:14:51;13.20;;;7.80;;
70970;SDS011;58632;51.718;19.446;2024-02-26T12:17:22;7.10;;;4.60;;
70970;SDS011;58632;51.718;19.446;2024-02-26T12:19:51;6.20;;;4.90;;
70970;SDS011;58632;51.718;19.446;2024-02-26T12:22:18;7.80;;;5.60;;
70970;SDS011;58632;51.718;19.446;2024-02-26T12:24:45;7.60;;;4.60;;
70970;SDS011;58632;51.718;19.446;2024-02-26T12:27:11;5.40;;;3.60;;
70970;SDS011;58632;51.718;19.446;2024-02-26T12:29:37;7.10;;;4.90;;
70970;SDS011;58632;51.718;19.446;2024-02-26T12:32:03;6.10;;;4.20;;
70970;SDS011;58632;51.718;19.446;2024-02-26T12:34:30;8.20;;;4.40;;
70970;SDS011;58632;51.718;19.446;2024-02-26T12:36:56;9.80;;;4.80;;
70970;SDS011;58632;51.718;19.446;2024-02-26T12:39:22;7.00;;;4.60;;
70970;SDS011;58632;51.718;19.446;2024-02-26T12:41:48;6.40;;;3.80;;
70970;SDS011;58632;51.718;19.446;2024-02-26T12:44:17;6.50;;;4.20;;
70970;SDS011;58632;51.718;19.446;2024-02-26T12:46:46;6.90;;;4.20;;
70970;SDS011;58632;51.718;19.446;2024-02-26T12:49:14;9.60;;;4.80;;
70970;SDS011;58632;51.718;19.446;2024-02-26T12:51:41;7.90;;;4.90;;
70970;SDS011;58632;51.718;19.446;2024-02-26T12:54:07;11.60;;;4.90;;
70970;SDS011;58632;51.718;19.446;2024-02-26T12:56:34;7.20;;;4.30;;
70970;SDS011;58632;51.718;19.446;2024-02-26T12:59:00;9.00;;;4.40;;
70970;SDS011;58632;51.718;19.446;2024-02-26T13:01:27;6.80;;;4.50;;
70970;SDS011;58632;51.718;19.446;2024-02-26T13:03:53;8.30;;;3.70;;
70970;SDS011;58632;51.718;19.446;2024-02-26T13:06:19;6.60;;;4.20;;
70970;SDS011;58632;51.718;19.446;2024-02-26T13:08:47;7.00;;;4.80;;
70970;SDS011;58632;51.718;19.446;2024-02-26T13:11:13;9.20;;;4.90;;
70970;SDS011;58632;51.718;19.446;2024-02-26T13:13:39;9.10;;;5.60;;
70970;SDS011;58632;51.718;19.446;2024-02-26T13:16:05;9.30;;;5.50;;
70970;SDS011;58632;51.718;19.446;2024-02-26T13:18:33;11.30;;;6.60;;
70970;SDS011;58632;51.718;19.446;2024-02-26T13:21:07;12.40;;;6.80;;
70970;SDS011;58632;51.718;19.446;2024-02-26T13:23:34;21.50;;;6.60;;
70970;SDS011;58632;51.718;19.446;2024-02-26T13:25:59;8.30;;;5.70;;
70970;SDS011;58632;51.718;19.446;2024-02-26T13:28:25;11.80;;;6.50;;
70970;SDS011;58632;51.718;19.446;2024-02-26T13:30:56;25.10;;;10.60;;
70970;SDS011;58632;51.718;19.446;2024-02-26T13:33:23;8.90;;;4.70;;
70970;SDS011;58632;51.718;19.446;2024-02-26T13:35:50;9.90;;;6.00;;
70970;SDS011;58632;51.718;19.446;2024-02-26T13:38:16;9.00;;;5.00;;
70970;SDS011;58632;51.718;19.446;2024-02-26T13:40:42;10.50;;;6.90;;
70970;SDS011;58632;51.718;19.446;2024-02-26T13:43:08;10.80;;;7.60;;
70970;SDS011;58632;51.718;19.446;2024-02-26T13:45:33;41.80;;;9.60;;
70970;SDS011;58632;51.718;19.446;2024-02-26T13:48:04;16.00;;;8.20;;
70970;SDS011;58632;51.718;19.446;2024-02-26T13:50:31;16.90;;;7.80;;
70970;SDS011;58632;51.718;19.446;2024-02-26T13:52:59;14.60;;;6.80;;
70970;SDS011;58632;51.718;19.446;2024-02-26T13:55:25;29.10;;;8.50;;
70970;SDS011;58632;51.718;19.446;2024-02-26T13:57:53;13.50;;;8.40;;
70970;SDS011;58632;51.718;19.446;2024-02-26T14:00:19;12.70;;;8.30;;
70970;SDS011;58632;51.718;19.446;2024-02-26T14:02:45;12.60;;;9.00;;
70970;SDS011;58632;51.718;19.446;2024-02-26T14:05:11;13.10;;;8.20;;
70970;SDS011;58632;51.718;19.446;2024-02-26T14:07:37;14.80;;;8.70;;
70970;SDS011;58632;51.718;19.446;2024-02-26T14:10:03;15.40;;;10.20;;
70970;SDS011;58632;51.718;19.446;2024-02-26T14:12:31;13.30;;;8.60;;
70970;SDS011;58632;51.718;19.446;2024-02-26T14:14:57;16.80;;;9.20;;
70970;SDS011;58632;51.718;19.446;2024-02-26T14:17:25;9.70;;;8.10;;
70970;SDS011;58632;51.718;19.446;2024-02-26T14:19:51;17.60;;;9.70;;
70970;SDS011;58632;51.718;19.446;2024-02-26T14:22:17;13.70;;;8.30;;
70970;SDS011;58632;51.718;19.446;2024-02-26T14:24:43;10.60;;;8.00;;